Time;durP1;ratioP1;P1;durP2;ratioP2;P2;SDS_P1;SDS_P2;PMS_P1;PMS_P2;Temp;Humidity;BMP_temperature;BMP_pressure;BME280_temperature;BME280_humidity;BME280_pressure;Samples;Min_cycle;Max_cycle;Signal;HPM_P1;HPM_P2
2021/11/22 00:02:25;;;;;;;11.90;1.73;;;;;;;7.01;72.39;102241.25;4994575;28;20051;-75
2021/11/22 00:04:50;;;;;;;5.35;1.42;;;;;;;7.05;72.14;102246.66;4996802;28;20045;-76
2021/11/22 00:07:17;;;;;;;5.85;1.27;;;;;;;7.00;72.16;102248.13;4981915;28;22336;-76
2021/11/22 00:09:43;;;;;;;7.70;1.48;;;;;;;6.93;72.28;102243.47;5007494;28;20132;-75
2021/11/22 00:12:10;;;;;;;3.70;1.10;;;;;;;7.03;72.08;102249.97;4996211;28;20342;-76
2021/11/22 00:14:36;;;;;;;6.43;1.30;;;;;;;7.03;71.58;102252.56;4977325;28;20115;-76
2021/11/22 00:17:02;;;;;;;6.28;1.20;;;;;;;6.96;72.26;102261.75;4985120;28;20505;-75
2021/11/22 00:19:29;;;;;;;5.57;1.40;;;;;;;6.86;72.69;102260.41;4999381;28;20057;-75
2021/11/22 00:21:54;;;;;;;4.78;1.23;;;;;;;6.89;72.19;102263.13;4985392;28;20612;-75
2021/11/22 00:24:20;;;;;;;5.63;1.48;;;;;;;6.85;72.41;102269.00;4993103;28;20056;-75
2021/11/22 00:26:45;;;;;;;7.47;1.33;;;;;;;6.83;72.37;102270.59;5004499;28;20060;-75
2021/11/22 00:29:10;;;;;;;8.40;1.23;;;;;;;6.78;72.67;102269.47;4994624;28;20033;-75
2021/11/22 00:31:36;;;;;;;3.38;1.20;;;;;;;6.77;72.55;102282.41;5007058;28;20069;-76
2021/11/22 00:34:01;;;;;;;7.97;1.45;;;;;;;6.72;72.43;102269.19;5003054;28;20114;-75
2021/11/22 00:36:29;;;;;;;10.57;1.40;;;;;;;6.63;72.95;102279.09;4977091;28;20526;-76
2021/11/22 00:38:54;;;;;;;5.25;1.40;;;;;;;6.66;73.03;102279.22;5001296;28;20308;-75
2021/11/22 00:41:19;;;;;;;8.88;1.80;;;;;;;6.60;73.02;102283.19;5005279;28;20084;-74
2021/11/22 00:43:45;;;;;;;4.65;1.50;;;;;;;6.55;73.13;102284.66;5003273;28;20389;-77
2021/11/22 00:46:10;;;;;;;8.77;1.50;;;;;;;6.46;73.34;102291.13;4996114;28;20080;-74
2021/11/22 00:48:35;;;;;;;6.68;1.42;;;;;;;6.45;73.54;102297.16;4997679;28;20041;-76
2021/11/22 00:51:01;;;;;;;8.65;1.50;;;;;;;6.45;73.51;102304.03;4983211;28;20045;-75
2021/11/22 00:53:29;;;;;;;7.47;1.50;;;;;;;6.47;73.61;102308.47;4986445;28;20048;-75
2021/11/22 00:55:54;;;;;;;7.13;1.48;;;;;;;6.44;73.53;102312.63;4991109;28;20485;-76
2021/11/22 00:58:20;;;;;;;5.38;1.30;;;;;;;6.56;73.22;102308.06;4991497;28;20524;-75
2021/11/22 01:00:45;;;;;;;10.05;1.50;;;;;;;6.48;73.26;102311.97;4989048;28;20536;-76
2021/11/22 01:03:13;;;;;;;9.50;2.90;;;;;;;6.45;73.54;102317.00;5001292;28;20069;-75
2021/11/22 01:05:38;;;;;;;6.35;1.33;;;;;;;6.42;73.60;102314.22;5003862;28;20048;-75
2021/11/22 01:08:04;;;;;;;8.32;1.40;;;;;;;6.35;73.61;102315.59;5000921;28;20682;-75
2021/11/22 01:10:32;;;;;;;5.80;1.50;;;;;;;6.35;73.63;102325.06;4979681;28;20053;-75
2021/11/22 01:12:57;;;;;;;4.93;1.67;;;;;;;6.31;73.76;102326.63;4986204;28;20087;-77
2021/11/22 01:15:23;;;;;;;8.20;1.60;;;;;;;6.24;73.26;102332.25;5002154;28;20041;-75
2021/11/22 01:17:50;;;;;;;8.63;1.58;;;;;;;6.29;73.89;102337.69;5007731;28;20040;-74
2021/11/22 01:20:20;;;;;;;9.65;1.73;;;;;;;6.26;73.85;102338.44;4989505;28;20168;-76
2021/11/22 01:22:46;;;;;;;8.80;1.50;;;;;;;6.21;73.84;102342.47;4985746;28;20038;-76
2021/11/22 01:25:12;;;;;;;5.47;1.27;;;;;;;6.26;73.95;102338.44;5002329;28;20037;-75
2021/11/22 01:27:37;;;;;;;5.88;1.40;;;;;;;6.24;73.89;102344.31;4998468;28;20037;-76
2021/11/22 01:30:05;;;;;;;6.55;1.60;;;;;;;6.26;73.84;102346.19;5008318;28;20040;-75
2021/11/22 01:32:30;;;;;;;8.25;1.52;;;;;;;6.35;73.75;102345.78;4996032;28;20605;-75
2021/11/22 01:34:56;;;;;;;4.72;1.67;;;;;;;6.37;73.93;102359.72;5007410;28;20889;-75
2021/11/22 01:37:21;;;;;;;4.55;1.25;;;;;;;6.36;73.84;102366.59;4987991;28;20030;-76
2021/11/22 01:39:47;;;;;;;5.03;1.42;;;;;;;6.33;74.02;102371.63;5010575;28;20317;-76
2021/11/22 01:42:12;;;;;;;5.93;1.55;;;;;;;6.31;74.05;102373.22;4994339;28;20575;-73
2021/11/22 01:44:39;;;;;;;14.75;1.83;;;;;;;6.32;73.88;102371.53;5002600;28;20124;-75
2021/11/22 01:47:04;;;;;;;4.85;1.50;;;;;;;6.36;73.81;102371.78;5001141;28;20550;-75
2021/11/22 01:49:30;;;;;;;6.68;1.60;;;;;;;6.28;73.83;102378.22;5007874;28;20055;-76
2021/11/22 01:51:55;;;;;;;6.30;1.58;;;;;;;6.26;74.02;102386.75;4989450;28;20671;-75
2021/11/22 01:54:21;;;;;;;8.50;1.48;;;;;;;6.30;73.33;102381.81;4993757;28;20452;-76
2021/11/22 01:56:46;;;;;;;7.03;1.38;;;;;;;6.20;73.80;102382.13;5002795;28;20139;-75
2021/11/22 01:59:16;;;;;;;4.88;1.45;;;;;;;6.27;73.32;102380.75;5002360;28;20523;-74
2021/11/22 02:01:42;;;;;;;7.55;1.60;;;;;;;6.24;72.99;102389.25;4985511;28;20045;-77
2021/11/22 02:04:14;;;;;;;5.05;1.27;;;;;;;6.17;73.24;102392.28;5010121;28;20554;-75
2021/11/22 02:06:40;;;;;;;7.40;1.63;;;;;;;6.12;73.08;102393.75;5005359;28;20399;-75
2021/11/22 02:09:06;;;;;;;7.43;1.45;;;;;;;6.06;73.02;102391.72;4967857;28;20255;-75
2021/11/22 02:11:33;;;;;;;7.53;1.60;;;;;;;5.99;73.14;102402.53;5000107;28;20095;-75
2021/11/22 02:13:58;;;;;;;6.95;1.45;;;;;;;5.97;73.12;102406.75;5000409;28;20045;-74
2021/11/22 02:16:24;;;;;;;9.30;1.40;;;;;;;5.95;73.13;102403.16;4996728;28;20112;-75
2021/11/22 02:18:49;;;;;;;6.10;1.60;;;;;;;5.93;73.03;102401.28;5008610;28;20316;-75
2021/11/22 02:21:15;;;;;;;6.38;1.50;;;;;;;5.89;72.60;102409.69;5015613;28;20079;-74
2021/11/22 02:23:41;;;;;;;8.88;1.52;;;;;;;5.91;71.99;102401.22;5000034;28;20053;-75
2021/11/22 02:26:08;;;;;;;8.32;1.10;;;;;;;5.90;72.07;102407.19;4988036;28;20109;-74
2021/11/22 02:28:34;;;;;;;5.80;1.48;;;;;;;5.87;72.27;102411.25;4997526;28;20092;-75
2021/11/22 02:30:59;;;;;;;6.72;1.33;;;;;;;5.88;71.96;102413.97;4988297;28;20450;-75
2021/11/22 02:33:27;;;;;;;6.03;1.50;;;;;;;5.85;71.87;102413.78;5002866;28;20041;-75
2021/11/22 02:35:56;;;;;;;7.00;1.38;;;;;;;5.80;71.71;102417.78;5008140;28;20041;-74
2021/11/22 02:38:23;;;;;;;3.72;1.15;;;;;;;5.77;71.81;102421.91;4998211;28;20056;-75
2021/11/22 02:40:48;;;;;;;7.22;1.30;;;;;;;5.84;71.55;102431.81;4985632;28;20045;-75
2021/11/22 02:43:14;;;;;;;8.65;1.40;;;;;;;5.83;71.22;102423.16;5005587;28;20079;-75
2021/11/22 02:45:40;;;;;;;8.48;1.38;;;;;;;5.84;70.74;102422.34;5002685;28;20124;-75
2021/11/22 02:48:05;;;;;;;6.18;1.30;;;;;;;5.84;70.93;102427.53;5004231;28;20470;-75
2021/11/22 02:50:31;;;;;;;3.10;1.17;;;;;;;5.89;70.58;102427.81;4995267;28;20047;-76
2021/11/22 02:52:56;;;;;;;4.32;1.25;;;;;;;5.83;70.92;102430.91;5005743;28;21325;-74
2021/11/22 02:55:22;;;;;;;4.65;1.30;;;;;;;5.82;70.66;102436.00;5006029;28;20037;-76
2021/11/22 02:57:48;;;;;;;4.63;1.05;;;;;;;5.70;71.41;102441.34;5008321;28;20438;-74
2021/11/22 03:00:22;;;;;;;5.75;1.20;;;;;;;5.66;71.23;102444.59;4996639;28;20401;-74
2021/11/22 03:02:49;;;;;;;8.80;1.20;;;;;;;5.54;71.83;102443.88;5008676;28;20174;-76
2021/11/22 03:05:15;;;;;;;4.20;1.00;;;;;;;5.47;71.19;102452.97;4985757;28;20482;-75
2021/11/22 03:07:40;;;;;;;7.93;1.00;;;;;;;5.46;72.03;102458.94;5005333;28;20052;-75
2021/11/22 03:10:08;;;;;;;7.82;1.17;;;;;;;5.48;72.12;102469.38;5001659;28;20138;-74
2021/11/22 03:12:34;;;;;;;5.72;1.38;;;;;;;5.49;72.10;102468.56;4987672;28;20425;-74
2021/11/22 03:15:01;;;;;;;10.85;1.27;;;;;;;5.48;72.26;102475.44;5000121;28;20045;-74
2021/11/22 03:17:26;;;;;;;4.47;1.10;;;;;;;5.53;71.65;102471.44;5003898;28;20053;-75
2021/11/22 03:19:52;;;;;;;7.80;1.10;;;;;;;5.44;71.76;102470.88;4990727;28;20044;-75
2021/11/22 03:22:17;;;;;;;8.38;1.20;;;;;;;5.36;72.01;102479.88;4974313;28;20592;-74
2021/11/22 03:24:42;;;;;;;6.07;1.20;;;;;;;5.27;71.90;102474.16;5012507;28;20410;-74
2021/11/22 03:27:08;;;;;;;4.18;1.20;;;;;;;5.18;71.89;102479.69;4992871;28;20045;-75
2021/11/22 03:29:33;;;;;;;9.38;1.40;;;;;;;5.12;72.93;102481.00;4998639;28;20091;-75
2021/11/22 03:31:59;;;;;;;4.55;1.10;;;;;;;5.17;72.57;102495.09;4979425;28;20056;-74
2021/11/22 03:34:25;;;;;;;3.90;1.13;;;;;;;5.15;72.48;102488.91;4988595;28;20033;-75
2021/11/22 03:36:51;;;;;;;8.75;1.40;;;;;;;5.14;72.68;102495.78;5004285;28;20134;-74
2021/11/22 03:39:21;;;;;;;6.20;1.17;;;;;;;5.14;72.38;102494.88;5002699;28;20163;-74
2021/11/22 03:41:47;;;;;;;3.95;1.10;;;;;;;5.06;71.94;102491.81;4988156;28;20103;-76
2021/11/22 03:44:16;;;;;;;4.80;1.10;;;;;;;5.00;72.86;102500.91;4998966;28;20839;-72
2021/11/22 03:46:44;;;;;;;7.80;1.20;;;;;;;4.96;72.97;102507.56;4997497;28;20056;-76
2021/11/22 03:49:10;;;;;;;5.32;1.30;;;;;;;4.88;72.43;102511.38;5011249;28;20036;-74
2021/11/22 03:51:36;;;;;;;3.58;0.98;;;;;;;4.82;73.26;102514.47;4988703;28;20370;-75
2021/11/22 03:54:02;;;;;;;4.63;1.20;;;;;;;4.79;73.66;102519.44;5005412;28;20582;-75
2021/11/22 03:56:27;;;;;;;7.35;1.42;;;;;;;4.86;73.58;102521.63;4995576;28;20562;-74
2021/11/22 03:58:53;;;;;;;6.32;1.20;;;;;;;4.93;73.24;102522.00;5001359;28;20433;-75
2021/11/22 04:01:18;;;;;;;5.68;1.10;;;;;;;4.90;73.11;102527.88;5002522;28;20079;-76
2021/11/22 04:03:44;;;;;;;7.47;1.10;;;;;;;4.99;72.94;102535.31;5010001;28;20417;-75
2021/11/22 04:06:10;;;;;;;7.75;1.30;;;;;;;5.00;72.96;102535.38;5002045;28;20485;-75
2021/11/22 04:08:36;;;;;;;7.10;1.17;;;;;;;5.04;72.76;102539.97;4997771;28;20660;-74
2021/11/22 04:11:02;;;;;;;12.98;1.90;;;;;;;5.05;73.21;102544.34;5010490;28;20255;-74
2021/11/22 04:13:27;;;;;;;4.80;0.93;;;;;;;5.06;72.73;102548.69;5000205;28;20048;-74
2021/11/22 04:15:52;;;;;;;5.00;1.20;;;;;;;5.13;72.34;102555.13;5002039;28;20037;-76
2021/11/22 04:18:18;;;;;;;7.13;1.10;;;;;;;5.18;72.28;102557.22;4995457;28;20053;-76
2021/11/22 04:20:43;;;;;;;4.93;1.13;;;;;;;5.25;71.60;102556.78;5005153;28;20331;-75
2021/11/22 04:23:10;;;;;;;9.00;1.20;;;;;;;5.29;71.61;102563.97;4982567;28;20128;-74
2021/11/22 04:25:36;;;;;;;5.07;1.25;;;;;;;5.24;71.76;102565.38;4985122;28;20065;-74
2021/11/22 04:28:02;;;;;;;8.20;1.15;;;;;;;5.25;71.28;102564.53;5007201;28;20064;-74
2021/11/22 04:30:30;;;;;;;5.65;1.13;;;;;;;5.29;71.41;102565.66;4975317;28;20029;-74
2021/11/22 04:32:56;;;;;;;9.45;1.17;;;;;;;5.25;71.51;102566.22;4979694;28;20087;-75
2021/11/22 04:35:21;;;;;;;5.97;1.17;;;;;;;5.21;71.28;102566.84;4986068;28;20049;-74
2021/11/22 04:37:47;;;;;;;9.60;1.30;;;;;;;5.18;72.00;102575.34;5005241;28;20403;-76
2021/11/22 04:40:15;;;;;;;6.85;1.25;;;;;;;5.17;71.49;102578.72;5005322;28;20091;-75
2021/11/22 04:42:45;;;;;;;7.60;1.17;;;;;;;5.11;71.90;102575.75;4996930;28;20493;-75
2021/11/22 04:45:11;;;;;;;5.80;1.38;;;;;;;5.04;72.66;102576.16;4989279;28;20041;-75
2021/11/22 04:47:36;;;;;;;6.53;1.20;;;;;;;5.04;71.93;102578.75;5003850;28;20547;-75
2021/11/22 04:50:02;;;;;;;9.23;1.25;;;;;;;5.03;72.10;102579.53;5010252;28;20489;-74
2021/11/22 04:52:27;;;;;;;6.43;1.30;;;;;;;5.08;72.37;102580.72;4997022;28;20233;-74
2021/11/22 04:54:52;;;;;;;5.68;1.13;;;;;;;5.08;72.23;102588.47;5006981;28;20418;-74
2021/11/22 04:57:18;;;;;;;5.72;1.30;;;;;;;5.13;71.99;102587.06;5009235;28;20348;-74
2021/11/22 04:59:44;;;;;;;5.90;1.27;;;;;;;5.18;71.83;102595.13;5007733;28;20420;-75
2021/11/22 05:02:10;;;;;;;4.63;1.10;;;;;;;5.25;71.96;102589.50;5007176;28;20130;-75
2021/11/22 05:04:36;;;;;;;3.42;0.90;;;;;;;5.23;71.85;102588.53;5002205;28;20112;-75
2021/11/22 05:07:03;;;;;;;4.93;1.27;;;;;;;5.20;71.77;102588.34;4991046;28;20047;-77
2021/11/22 05:09:28;;;;;;;5.18;1.15;;;;;;;5.22;72.03;102599.69;5004597;28;20118;-75
2021/11/22 05:11:54;;;;;;;7.03;1.20;;;;;;;5.13;72.20;102601.66;5007555;28;21322;-77
2021/11/22 05:14:19;;;;;;;5.60;1.20;;;;;;;5.16;72.05;102605.34;5002814;28;20498;-73
2021/11/22 05:16:45;;;;;;;6.53;1.20;;;;;;;5.16;72.29;102609.63;5003598;28;20527;-74
2021/11/22 05:19:11;;;;;;;6.68;1.10;;;;;;;5.17;71.92;102614.91;4990704;28;20037;-75
2021/11/22 05:21:37;;;;;;;8.13;1.33;;;;;;;5.22;71.74;102615.19;5006857;28;20045;-76
2021/11/22 05:24:02;;;;;;;5.22;1.00;;;;;;;5.23;71.50;102619.56;5011057;28;20352;-76
2021/11/22 05:26:29;;;;;;;6.75;1.20;;;;;;;5.15;72.08;102616.50;5000693;28;20049;-75
2021/11/22 05:28:55;;;;;;;10.65;1.88;;;;;;;5.15;71.92;102621.66;5004182;28;20124;-75
2021/11/22 05:31:21;;;;;;;4.30;1.05;;;;;;;5.12;71.84;102618.88;5009617;28;20565;-75
2021/11/22 05:33:46;;;;;;;7.00;1.30;;;;;;;5.02;72.29;102634.59;4986868;28;20112;-74
2021/11/22 05:36:12;;;;;;;6.25;1.30;;;;;;;5.00;72.93;102633.59;5001859;28;20045;-75
2021/11/22 05:38:38;;;;;;;6.85;1.58;;;;;;;5.08;72.33;102635.00;5004283;28;20370;-75
2021/11/22 05:41:03;;;;;;;6.22;1.23;;;;;;;5.04;72.28;102630.44;5008138;28;20057;-75
2021/11/22 05:43:28;;;;;;;8.65;1.13;;;;;;;5.08;72.84;102636.69;5008472;28;20414;-75
2021/11/22 05:45:54;;;;;;;7.25;1.27;;;;;;;5.00;72.49;102640.50;5008374;28;20048;-74
2021/11/22 05:48:19;;;;;;;7.05;1.33;;;;;;;5.02;72.57;102644.06;5001135;28;20485;-76
2021/11/22 05:50:54;;;;;;;4.70;1.20;;;;;;;4.97;72.93;102642.88;5003531;28;20041;-75
2021/11/22 05:53:20;;;;;;;;;;;;;;;4.99;73.09;102643.88;4990093;28;20529;-74
2021/11/22 05:55:50;;;;;;;5.28;1.10;;;;;;;4.96;72.16;102648.81;5007624;28;19928;-76
2021/11/22 05:58:15;;;;;;;4.80;1.30;;;;;;;4.93;72.77;102651.22;4994310;28;20222;-76
2021/11/22 06:00:41;;;;;;;4.15;1.20;;;;;;;4.84;73.39;102654.09;5007877;28;20033;-76
2021/11/22 06:03:07;;;;;;;4.57;1.17;;;;;;;4.83;72.73;102654.88;4988120;28;20041;-76
2021/11/22 06:05:33;;;;;;;4.63;1.30;;;;;;;4.79;73.23;102663.25;5006504;28;20069;-74
2021/11/22 06:07:58;;;;;;;5.38;1.50;;;;;;;4.76;73.99;102658.75;4975124;28;20064;-75
2021/11/22 06:10:24;;;;;;;6.97;1.45;;;;;;;4.76;73.48;102674.28;4992400;28;20415;-75
2021/11/22 06:12:49;;;;;;;5.85;1.40;;;;;;;4.74;73.56;102672.41;4989028;28;20619;-75
2021/11/22 06:15:14;;;;;;;8.38;1.42;;;;;;;4.79;73.87;102663.25;5001513;28;20158;-75
2021/11/22 06:17:40;;;;;;;3.97;1.30;;;;;;;4.88;74.05;102675.06;5006371;28;20037;-75
2021/11/22 06:20:08;;;;;;;7.53;1.33;;;;;;;4.93;72.64;102675.38;4992831;28;20049;-75
2021/11/22 06:22:33;;;;;;;5.30;1.52;;;;;;;4.86;72.71;102687.00;5001511;28;20068;-77
2021/11/22 06:24:59;;;;;;;7.00;1.50;;;;;;;4.83;73.58;102686.81;4999007;28;20140;-76
2021/11/22 06:27:25;;;;;;;7.75;1.40;;;;;;;4.80;73.54;102689.19;5006144;28;20043;-75
2021/11/22 06:29:51;;;;;;;7.07;1.40;;;;;;;4.85;73.59;102694.66;5001933;28;20033;-75
2021/11/22 06:32:17;;;;;;;9.02;1.60;;;;;;;4.86;73.35;102699.03;4975451;28;20048;-76
2021/11/22 06:34:42;;;;;;;4.15;1.60;;;;;;;4.88;73.25;102698.31;5012547;28;20445;-76
2021/11/22 06:37:08;;;;;;;3.78;1.30;;;;;;;4.82;73.36;102705.69;4989037;28;20745;-76
2021/11/22 06:39:34;;;;;;;6.00;1.60;;;;;;;4.76;73.00;102699.22;4997524;28;20053;-75
2021/11/22 06:41:59;;;;;;;4.15;1.35;;;;;;;4.63;73.01;102705.28;5003896;28;20045;-77
2021/11/22 06:44:25;;;;;;;3.63;1.17;;;;;;;4.49;73.06;102706.94;4994372;28;20041;-74
2021/11/22 06:46:50;;;;;;;7.57;1.63;;;;;;;4.44;74.06;102715.19;5008484;28;20041;-75
2021/11/22 06:49:17;;;;;;;5.82;1.60;;;;;;;4.38;74.09;102722.50;5002762;28;20395;-75
2021/11/22 06:51:42;;;;;;;5.07;1.50;;;;;;;4.30;73.96;102726.25;5002748;28;20045;-75
2021/11/22 06:54:08;;;;;;;7.65;1.80;;;;;;;4.25;74.04;102730.22;4998349;28;20498;-75
2021/11/22 06:56:34;;;;;;;6.50;1.92;;;;;;;4.24;74.77;102744.81;4982327;28;20049;-75
2021/11/22 06:58:59;;;;;;;8.00;2.00;;;;;;;4.43;75.33;102747.84;4998635;28;20033;-75
2021/11/22 07:01:24;;;;;;;8.00;2.10;;;;;;;4.47;74.54;102752.41;5009531;28;20049;-77
2021/11/22 07:03:50;;;;;;;10.60;2.17;;;;;;;4.52;74.36;102757.00;5013063;28;20045;-76
2021/11/22 07:06:15;;;;;;;7.72;2.15;;;;;;;4.62;74.58;102772.34;4985182;28;20121;-76
2021/11/22 07:08:41;;;;;;;7.97;2.13;;;;;;;4.64;74.57;102766.47;4973608;28;20033;-76
2021/11/22 07:11:06;;;;;;;8.93;2.20;;;;;;;4.75;74.40;102774.97;5001170;28;20045;-76
2021/11/22 07:13:33;;;;;;;7.18;2.10;;;;;;;4.84;74.27;102778.13;4987841;28;20553;-74
2021/11/22 07:15:59;;;;;;;6.38;1.67;;;;;;;4.87;73.66;102783.53;4998581;28;20114;-76
2021/11/22 07:18:25;;;;;;;8.15;2.20;;;;;;;4.90;73.64;102787.19;4978398;28;20045;-74
2021/11/22 07:20:50;;;;;;;7.40;2.10;;;;;;;4.88;73.88;102787.88;4984483;28;20379;-76
2021/11/22 07:23:21;;;;;;;7.38;1.95;;;;;;;4.89;73.62;102795.75;4983736;28;20049;-76
2021/11/22 07:25:47;;;;;;;6.15;2.05;;;;;;;4.95;74.11;102800.41;5005012;28;22231;-76
2021/11/22 07:28:12;;;;;;;8.52;2.15;;;;;;;5.00;73.51;102801.63;4993629;28;20150;-75
2021/11/22 07:30:38;;;;;;;9.63;2.55;;;;;;;5.04;73.98;102810.50;4999581;28;20685;-75
2021/11/22 07:33:03;;;;;;;12.30;2.03;;;;;;;5.10;73.71;102813.47;4989321;28;20609;-75
2021/11/22 07:35:29;;;;;;;6.95;1.95;;;;;;;5.04;73.03;102815.66;4985711;28;20045;-74
2021/11/22 07:37:54;;;;;;;7.78;2.00;;;;;;;5.01;73.57;102821.50;5004512;28;20047;-76
2021/11/22 07:40:21;;;;;;;8.70;2.10;;;;;;;5.04;73.39;102826.91;4989201;28;20060;-74
2021/11/22 07:42:47;;;;;;;11.73;2.33;;;;;;;5.07;73.60;102832.25;4982376;28;20487;-74
2021/11/22 07:45:12;;;;;;;8.75;2.10;;;;;;;5.11;73.62;102834.28;5001926;28;20042;-74
2021/11/22 07:47:37;;;;;;;5.55;1.85;;;;;;;5.07;73.21;102831.34;4975709;28;20604;-75
2021/11/22 07:50:04;;;;;;;7.03;1.63;;;;;;;5.02;73.36;102830.16;5002160;28;20048;-75
2021/11/22 07:52:29;;;;;;;9.40;2.00;;;;;;;4.95;73.05;102835.72;4991797;28;20144;-75
2021/11/22 07:54:55;;;;;;;6.00;2.10;;;;;;;4.88;73.25;102836.97;5006470;28;20045;-76
2021/11/22 07:57:20;;;;;;;4.55;2.65;;;;;;;4.84;73.74;102837.56;4996879;28;20049;-78
2021/11/22 07:59:46;;;;;;;8.93;2.80;;;;;;;4.80;74.30;102844.25;4981904;28;20423;-76
2021/11/22 08:02:12;;;;;;;10.80;2.50;;;;;;;4.80;74.35;102846.81;4996433;28;20500;-76
2021/11/22 08:04:38;;;;;;;5.57;2.35;;;;;;;4.83;74.56;102857.34;5003577;28;20026;-75
2021/11/22 08:07:10;;;;;;;6.93;2.10;;;;;;;4.84;74.87;102858.25;5000441;28;20042;-77
2021/11/22 08:09:42;;;;;;;8.52;2.45;;;;;;;4.90;74.61;102858.66;5000946;28;20476;-75
2021/11/22 08:14:34;;;;;;;8.15;2.83;;;;;;;4.98;75.03;102875.59;4994871;28;20538;-76
2021/11/22 08:16:59;;;;;;;10.05;2.75;;;;;;;5.10;75.67;102870.34;4983534;28;20509;-75
2021/11/22 08:19:25;;;;;;;10.02;3.00;;;;;;;5.31;75.72;102869.19;4981916;28;20382;-75
2021/11/22 08:21:50;;;;;;;6.07;2.15;;;;;;;5.42;74.90;102875.09;4982058;28;20045;-76
2021/11/22 08:24:15;;;;;;;6.57;2.20;;;;;;;5.52;74.81;102869.72;4992883;28;20080;-75
2021/11/22 08:26:41;;;;;;;8.98;2.50;;;;;;;5.58;74.62;102878.78;5006264;28;20051;-75
2021/11/22 08:29:06;;;;;;;9.48;2.45;;;;;;;5.69;74.58;102882.03;5006791;28;20411;-75
2021/11/22 08:31:31;;;;;;;7.13;2.50;;;;;;;5.79;74.77;102878.38;5003298;28;20072;-75
2021/11/22 08:33:57;;;;;;;7.28;2.47;;;;;;;5.87;74.72;102875.50;5002740;28;20051;-75
2021/11/22 08:36:25;;;;;;;7.78;2.55;;;;;;;5.98;74.44;102882.25;4979903;28;20080;-74
2021/11/22 08:38:51;;;;;;;6.38;2.33;;;;;;;6.12;74.58;102872.78;5007938;28;20103;-74
2021/11/22 08:41:17;;;;;;;9.18;2.65;;;;;;;6.17;74.47;102889.50;5006211;28;20422;-75
2021/11/22 08:43:42;;;;;;;6.55;2.63;;;;;;;6.29;74.61;102889.38;4988716;28;20080;-75
2021/11/22 08:46:09;;;;;;;5.15;2.70;;;;;;;6.39;74.53;102897.84;4993144;28;20498;-74
2021/11/22 08:48:34;;;;;;;6.07;2.63;;;;;;;6.49;74.62;102901.88;4979789;28;20126;-74
2021/11/22 08:51:02;;;;;;;12.23;3.08;;;;;;;6.61;74.49;102904.34;4984579;28;20024;-75
2021/11/22 08:53:28;;;;;;;7.18;2.60;;;;;;;6.74;74.27;102901.69;5008868;28;20704;-74
2021/11/22 08:55:53;;;;;;;9.43;2.47;;;;;;;6.86;72.40;102907.63;4986954;28;20033;-74
2021/11/22 08:58:19;;;;;;;7.18;2.40;;;;;;;7.05;72.67;102907.94;4999068;28;20036;-74
2021/11/22 09:00:44;;;;;;;6.00;2.30;;;;;;;7.19;72.43;102909.66;5004777;28;20720;-74
2021/11/22 09:03:10;;;;;;;9.07;2.08;;;;;;;7.31;70.16;102912.97;4998302;28;20033;-74
2021/11/22 09:05:36;;;;;;;10.48;2.30;;;;;;;7.30;68.84;102920.66;4989098;28;20104;-74
2021/11/22 09:08:02;;;;;;;11.38;2.45;;;;;;;7.47;68.82;102914.75;5002700;28;21074;-76
2021/11/22 09:10:28;;;;;;;7.40;2.30;;;;;;;7.65;68.04;102921.00;4985429;28;20463;-73
2021/11/22 09:12:54;;;;;;;7.10;2.17;;;;;;;7.74;67.62;102924.13;5007660;28;20044;-73
2021/11/22 09:15:19;;;;;;;9.68;2.22;;;;;;;7.85;67.09;102929.06;5000426;28;20053;-74
2021/11/22 09:17:45;;;;;;;11.05;2.50;;;;;;;7.96;66.80;102927.97;5009754;28;20056;-76
2021/11/22 09:20:11;;;;;;;9.73;2.50;;;;;;;8.02;66.48;102930.91;4980611;28;20060;-74
2021/11/22 09:22:38;;;;;;;6.07;2.33;;;;;;;8.19;66.47;102930.13;5006120;28;20132;-74
2021/11/22 09:25:04;;;;;;;11.15;2.45;;;;;;;8.27;66.91;102930.56;5005393;28;20291;-74
2021/11/22 09:27:30;;;;;;;8.27;2.10;;;;;;;8.30;66.87;102935.91;5000000;28;20040;-74
2021/11/22 09:29:56;;;;;;;8.05;2.10;;;;;;;8.05;65.13;102944.94;5008520;28;20038;-75
2021/11/22 09:32:21;;;;;;;9.63;2.53;;;;;;;8.08;65.30;102945.13;4992951;28;20059;-75
2021/11/22 09:34:48;;;;;;;11.85;2.20;;;;;;;7.95;65.53;102945.25;5002792;28;20529;-75
2021/11/22 09:37:13;;;;;;;9.25;2.10;;;;;;;8.28;64.96;102948.84;5006950;28;20029;-76
2021/11/22 09:39:39;;;;;;;9.63;2.17;;;;;;;8.41;65.72;102953.97;5010591;28;20526;-76
2021/11/22 09:42:05;;;;;;;9.45;2.60;;;;;;;8.40;64.65;102953.88;4990159;28;20030;-76
2021/11/22 09:44:30;;;;;;;6.78;2.00;;;;;;;8.42;64.84;102960.91;4996738;28;20365;-76
2021/11/22 09:46:55;;;;;;;8.77;2.65;;;;;;;8.59;64.49;102960.97;5008181;28;20560;-74
2021/11/22 09:49:21;;;;;;;6.55;2.08;;;;;;;8.51;64.55;102965.75;5006335;28;20164;-75
2021/11/22 09:51:47;;;;;;;5.75;2.20;;;;;;;8.67;64.67;102967.47;4986990;28;20029;-75
2021/11/22 09:54:12;;;;;;;6.85;2.20;;;;;;;8.74;64.87;102969.59;5004094;28;20044;-75
2021/11/22 09:56:38;;;;;;;7.88;2.50;;;;;;;8.85;65.27;102971.94;4994729;28;20148;-76
2021/11/22 09:59:04;;;;;;;10.25;2.58;;;;;;;8.88;65.25;102974.72;5009279;28;20037;-74
2021/11/22 10:01:34;;;;;;;10.75;2.70;;;;;;;9.07;64.21;102980.91;4996999;28;20425;-75
2021/11/22 10:04:07;;;;;;;9.02;2.20;;;;;;;8.93;63.56;102973.25;4991505;28;20053;-75
2021/11/22 10:06:53;;;;;;;8.43;2.55;;;;;;;8.93;64.43;102975.88;4973844;28;22955;-75
2021/11/22 10:09:31;;;;;;;7.40;2.45;;;;;;;8.86;64.26;102978.03;4981102;28;20049;-75
2021/11/22 10:12:01;;;;;;;10.30;2.50;;;;;;;8.78;64.73;102974.16;5007225;28;20072;-74
2021/11/22 10:14:28;;;;;;;9.52;2.60;;;;;;;8.75;65.31;102974.88;4995365;28;20166;-75
2021/11/22 10:16:54;;;;;;;8.68;2.47;;;;;;;8.73;65.08;102968.69;5007827;28;20041;-75
2021/11/22 10:19:20;;;;;;;10.60;2.70;;;;;;;8.83;65.52;102976.19;5006208;28;20048;-75
2021/11/22 10:21:47;;;;;;;7.07;2.50;;;;;;;8.88;65.15;102985.13;4995845;28;20123;-74
2021/11/22 10:24:13;;;;;;;7.05;2.53;;;;;;;8.79;65.02;102981.13;4995801;28;20044;-75
2021/11/22 10:26:40;;;;;;;8.15;2.38;;;;;;;8.65;64.37;102982.09;4987373;28;20057;-73
2021/11/22 10:29:05;;;;;;;15.60;2.35;;;;;;;8.85;64.54;102974.56;5004282;28;20083;-73
2021/11/22 10:31:32;;;;;;;10.50;2.38;;;;;;;8.90;64.60;102978.28;5005928;28;20140;-74
2021/11/22 10:33:58;;;;;;;9.60;2.63;;;;;;;8.91;64.42;102979.19;5011884;28;20044;-73
2021/11/22 10:36:26;;;;;;;5.70;2.33;;;;;;;8.95;63.94;102976.84;4997925;28;20037;-73
2021/11/22 10:38:54;;;;;;;8.20;2.50;;;;;;;9.03;64.37;102978.94;5012236;28;20128;-74
2021/11/22 10:41:21;;;;;;;10.38;2.40;;;;;;;8.95;63.47;102971.66;5002415;28;21059;-74
2021/11/22 10:43:52;;;;;;;6.85;2.20;;;;;;;9.09;64.08;102980.16;4982854;28;20350;-75
2021/11/22 10:46:23;;;;;;;8.90;2.13;;;;;;;9.06;64.17;102974.81;4983317;28;20045;-73
2021/11/22 10:48:51;;;;;;;9.25;2.03;;;;;;;9.06;62.29;102980.00;5006874;28;20230;-74
2021/11/22 10:51:21;;;;;;;11.70;2.30;;;;;;;9.14;61.85;102977.81;4989860;28;20037;-76
2021/11/22 10:53:49;;;;;;;6.90;2.00;;;;;;;9.23;62.84;102978.28;5004611;28;20041;-75
2021/11/22 10:56:23;;;;;;;4.30;1.95;;;;;;;9.23;61.85;102978.28;4991971;28;20072;-74
2021/11/22 10:58:54;;;;;;;5.97;1.80;;;;;;;9.26;62.49;102970.66;4986776;28;20040;-74
2021/11/22 11:01:59;;;;;;;6.05;1.88;;;;;;;9.25;61.66;102976.66;4999842;28;20580;-75
2021/11/22 11:04:26;;;;;;;6.70;1.95;;;;;;;9.32;61.15;102974.47;4990646;28;20111;-74
2021/11/22 11:06:57;;;;;;;4.75;1.65;;;;;;;9.34;60.54;102974.53;5005101;28;20303;-74
2021/11/22 11:09:41;;;;;;;5.72;1.70;;;;;;;9.35;61.26;102981.53;5009130;28;20045;-74
2021/11/22 11:12:17;;;;;;;7.70;2.00;;;;;;;9.41;61.55;102987.06;4981858;28;21170;-75
2021/11/22 11:14:48;;;;;;;8.13;2.00;;;;;;;9.46;61.59;102989.88;4997857;28;20461;-74
2021/11/22 11:17:17;;;;;;;7.25;2.00;;;;;;;9.43;60.81;102990.63;4983850;28;21091;-74
2021/11/22 11:19:43;;;;;;;7.03;1.73;;;;;;;9.59;60.69;102990.59;5003542;28;20042;-74
2021/11/22 11:22:09;;;;;;;8.05;2.05;;;;;;;9.54;60.78;102986.88;4985166;28;21568;-74
2021/11/22 11:24:36;;;;;;;6.38;1.98;;;;;;;9.61;60.29;102995.88;4994977;28;20152;-74
2021/11/22 11:27:01;;;;;;;4.88;1.70;;;;;;;9.57;60.00;102989.66;4961319;28;20053;-75
2021/11/22 11:29:26;;;;;;;6.45;1.40;;;;;;;9.62;59.55;102995.09;4974739;28;20045;-75
2021/11/22 11:31:52;;;;;;;5.57;1.50;;;;;;;9.62;58.38;102995.09;5000284;28;20056;-75